HAD775 ZULS-VNKT
Flight info
| Callsign | HAD775 |
|---|---|
| Flight time | N/A |
| Altitude | 34100 |
| Route | K0846S1040 DEP10R IKUBI B345 TUMLI/N0440F310 G348 KIMTI KMTI1G |
| Aircraft | A319/M-SDE3FGHIRWY/LB1 |
Departure
| Time | 2026-05-01 14:23 |
|---|---|
| Airport | Lhasa Gonggar International Airport (ZULS) |
Arrival
| Time | N/A |
|---|---|
| Airport | Tribhuvan International Airport (VNKT) |
| Time | Latitude | Longitude | Altitude | Speed | Heading |
|---|---|---|---|---|---|
| 2026-05-01 14:20 | 29.13957 | 91.43531 | 25864 ft | 336 kts | 169° |
| 2026-05-01 14:20 | 29.11641 | 91.43780 | 26342 ft | 335 kts | 186° |
| 2026-05-01 14:21 | 29.09361 | 91.43279 | 26791 ft | 334 kts | 202° |
| 2026-05-01 14:21 | 29.07301 | 91.42054 | 27239 ft | 334 kts | 218° |
| 2026-05-01 14:21 | 29.05616 | 91.40225 | 27525 ft | 335 kts | 234° |
| 2026-05-01 14:22 | 29.03863 | 91.35393 | 27578 ft | 332 kts | 264° |
| 2026-05-01 14:22 | 29.03919 | 91.32757 | 27585 ft | 333 kts | 280° |
| 2026-05-01 14:22 | 29.04513 | 91.30187 | 27591 ft | 340 kts | 286° |
| 2026-05-01 14:22 | 29.05203 | 91.27533 | 27585 ft | 357 kts | 285° |
| 2026-05-01 14:23 | 29.05926 | 91.24741 | 27581 ft | 374 kts | 286° |
| 2026-05-01 14:23 | 29.06677 | 91.21835 | 27579 ft | 390 kts | 285° |
| 2026-05-01 14:23 | 29.07459 | 91.18797 | 27584 ft | 405 kts | 285° |
| 2026-05-01 14:23 | 29.08264 | 91.15667 | 27694 ft | 416 kts | 285° |
| 2026-05-01 14:24 | 29.09078 | 91.12504 | 27817 ft | 425 kts | 285° |
| 2026-05-01 14:24 | 29.09932 | 91.09179 | 27945 ft | 434 kts | 285° |
| 2026-05-01 14:24 | 29.10778 | 91.05878 | 28071 ft | 442 kts | 285° |
| 2026-05-01 14:24 | 29.11647 | 91.02477 | 28202 ft | 450 kts | 285° |
| 2026-05-01 14:25 | 29.12529 | 90.99023 | 28419 ft | 454 kts | 285° |
| 2026-05-01 14:25 | 29.13418 | 90.95549 | 28719 ft | 457 kts | 285° |
| 2026-05-01 14:25 | 29.14312 | 90.92050 | 29027 ft | 459 kts | 285° |
| 2026-05-01 14:25 | 29.15209 | 90.88541 | 29333 ft | 461 kts | 285° |
| 2026-05-01 14:26 | 29.16110 | 90.85013 | 29640 ft | 463 kts | 285° |
| 2026-05-01 14:26 | 29.17906 | 90.77960 | 30498 ft | 460 kts | 285° |
| 2026-05-01 14:26 | 29.18802 | 90.74447 | 30917 ft | 459 kts | 285° |
| 2026-05-01 14:27 | 29.19694 | 90.70944 | 31343 ft | 458 kts | 285° |
| 2026-05-01 14:27 | 29.20580 | 90.67450 | 31763 ft | 456 kts | 285° |
| 2026-05-01 14:27 | 29.21463 | 90.63961 | 32156 ft | 456 kts | 285° |
| 2026-05-01 14:28 | 29.23218 | 90.57008 | 32938 ft | 454 kts | 285° |
| 2026-05-01 14:28 | 29.24089 | 90.53538 | 33318 ft | 453 kts | 285° |
| 2026-05-01 14:28 | 29.24947 | 90.50122 | 33700 ft | 452 kts | 285° |
| 2026-05-01 14:28 | 29.25814 | 90.46661 | 34020 ft | 452 kts | 285° |
| 2026-05-01 14:29 | 29.27550 | 90.39764 | 34110 ft | 451 kts | 285° |
| 2026-05-01 14:30 | 29.31011 | 90.25982 | 34107 ft | 450 kts | 285° |
| 2026-05-01 14:31 | 29.32811 | 90.15467 | 34109 ft | 450 kts | 271° |
| 2026-05-01 14:31 | 29.33033 | 90.08294 | 34111 ft | 450 kts | 272° |
| 2026-05-01 14:32 | 29.33271 | 90.01123 | 34106 ft | 450 kts | 272° |
| 2026-05-01 14:32 | 29.33517 | 89.93952 | 34104 ft | 450 kts | 272° |
| 2026-05-01 14:33 | 29.33754 | 89.86782 | 34104 ft | 450 kts | 272° |
| 2026-05-01 14:33 | 29.33976 | 89.79613 | 34109 ft | 450 kts | 272° |
| 2026-05-01 14:34 | 29.34191 | 89.72434 | 34109 ft | 450 kts | 271° |
| 2026-05-01 14:34 | 29.34406 | 89.65322 | 34107 ft | 450 kts | 272° |
| 2026-05-01 14:35 | 29.34626 | 89.58156 | 34109 ft | 450 kts | 271° |
| 2026-05-01 14:35 | 29.34837 | 89.50991 | 34110 ft | 449 kts | 271° |
| 2026-05-01 14:36 | 29.35048 | 89.43843 | 34107 ft | 448 kts | 271° |
| 2026-05-01 14:36 | 29.35248 | 89.36706 | 34106 ft | 448 kts | 271° |
| 2026-05-01 14:37 | 29.34717 | 89.29651 | 34088 ft | 445 kts | 255° |
| 2026-05-01 14:37 | 29.32138 | 89.23247 | 34136 ft | 444 kts | 236° |
| 2026-05-01 14:38 | 29.28008 | 89.17898 | 34128 ft | 453 kts | 230° |
| 2026-05-01 14:38 | 29.23753 | 89.12686 | 34147 ft | 444 kts | 226° |
| 2026-05-01 14:39 | 29.19556 | 89.07533 | 34126 ft | 454 kts | 228° |
| 2026-05-01 14:39 | 29.15300 | 89.02308 | 34146 ft | 448 kts | 228° |
| 2026-05-01 14:40 | 29.11069 | 88.97075 | 34151 ft | 447 kts | 229° |
| 2026-05-01 14:40 | 29.06832 | 88.91863 | 34155 ft | 448 kts | 228° |
| 2026-05-01 14:41 | 29.02577 | 88.86663 | 34158 ft | 448 kts | 228° |
| 2026-05-01 14:41 | 28.98331 | 88.81466 | 34163 ft | 447 kts | 228° |
| 2026-05-01 14:42 | 28.94100 | 88.76292 | 34163 ft | 446 kts | 228° |
| 2026-05-01 14:42 | 28.89854 | 88.71119 | 34159 ft | 446 kts | 228° |
| 2026-05-01 14:43 | 28.85612 | 88.65953 | 34157 ft | 446 kts | 228° |
| 2026-05-01 14:43 | 28.81368 | 88.60790 | 34157 ft | 446 kts | 228° |
| 2026-05-01 14:44 | 28.77126 | 88.55634 | 34156 ft | 445 kts | 228° |
| 2026-05-01 14:44 | 28.70787 | 88.47939 | 34144 ft | 446 kts | 227° |
| 2026-05-01 14:45 | 28.64414 | 88.40225 | 34127 ft | 445 kts | 227° |
| 2026-05-01 14:46 | 28.60172 | 88.35097 | 34122 ft | 445 kts | 227° |
| 2026-05-01 14:46 | 28.53804 | 88.27398 | 34114 ft | 445 kts | 227° |
| 2026-05-01 14:47 | 28.49558 | 88.22284 | 34122 ft | 445 kts | 227° |
| 2026-05-01 14:48 | 28.43194 | 88.14647 | 34128 ft | 445 kts | 227° |
| 2026-05-01 14:48 | 28.36822 | 88.06984 | 34134 ft | 445 kts | 227° |
| 2026-05-01 14:49 | 28.28321 | 87.96800 | 34135 ft | 444 kts | 227° |
| 2026-05-01 14:50 | 28.19815 | 87.86627 | 34133 ft | 444 kts | 227° |
| 2026-05-01 14:51 | 28.13447 | 87.79042 | 34125 ft | 444 kts | 227° |
| 2026-05-01 14:52 | 28.07053 | 87.71442 | 34118 ft | 444 kts | 227° |
| 2026-05-01 14:53 | 28.00661 | 87.63841 | 34123 ft | 444 kts | 227° |
| 2026-05-01 14:53 | 27.96412 | 87.58801 | 34125 ft | 444 kts | 227° |
| 2026-05-01 14:54 | 27.92147 | 87.53747 | 33820 ft | 442 kts | 227° |
| 2026-05-01 14:54 | 27.90020 | 87.51228 | 33565 ft | 441 kts | 227° |
| 2026-05-01 14:54 | 27.87898 | 87.48721 | 33315 ft | 441 kts | 227° |
| 2026-05-01 14:54 | 27.85769 | 87.46217 | 33065 ft | 442 kts | 225° |
| 2026-05-01 14:55 | 27.83419 | 87.43971 | 32814 ft | 444 kts | 216° |
| 2026-05-01 14:55 | 27.80748 | 87.42180 | 32561 ft | 447 kts | 207° |
| 2026-05-01 14:55 | 27.77875 | 87.40810 | 32310 ft | 450 kts | 204° |
| 2026-05-01 14:55 | 27.75013 | 87.39493 | 32066 ft | 450 kts | 204° |
| 2026-05-01 14:56 | 27.72108 | 87.38151 | 31814 ft | 451 kts | 204° |
| 2026-05-01 14:56 | 27.69200 | 87.36805 | 31561 ft | 452 kts | 204° |
| 2026-05-01 14:56 | 27.66285 | 87.35452 | 31311 ft | 453 kts | 204° |
| 2026-05-01 14:56 | 27.63368 | 87.34101 | 31083 ft | 454 kts | 204° |
| 2026-05-01 14:57 | 27.60439 | 87.32748 | 31004 ft | 454 kts | 204° |
| 2026-05-01 14:57 | 27.51628 | 87.28703 | 31014 ft | 456 kts | 204° |
| 2026-05-01 14:58 | 27.45758 | 87.26011 | 31003 ft | 456 kts | 204° |
| 2026-05-01 14:58 | 27.39917 | 87.23235 | 30988 ft | 455 kts | 210° |
| 2026-05-01 14:59 | 27.37359 | 87.21167 | 30983 ft | 452 kts | 225° |
| 2026-05-01 14:59 | 27.35372 | 87.18452 | 30979 ft | 450 kts | 239° |
| 2026-05-01 14:59 | 27.34086 | 87.15262 | 30975 ft | 449 kts | 254° |
| 2026-05-01 14:59 | 27.33576 | 87.11809 | 30966 ft | 449 kts | 268° |
| 2026-05-01 15:00 | 27.34538 | 87.04882 | 30948 ft | 450 kts | 282° |
| 2026-05-01 15:00 | 27.35220 | 87.01449 | 30944 ft | 451 kts | 282° |
| 2026-05-01 15:01 | 27.36578 | 86.94563 | 30933 ft | 451 kts | 282° |
| 2026-05-01 15:01 | 27.37922 | 86.87656 | 30930 ft | 452 kts | 281° |
| 2026-05-01 15:02 | 27.39260 | 86.80749 | 30924 ft | 452 kts | 281° |
| 2026-05-01 15:02 | 27.40593 | 86.73889 | 30926 ft | 452 kts | 282° |
| 2026-05-01 15:03 | 27.41940 | 86.66984 | 30924 ft | 452 kts | 282° |
| 2026-05-01 15:03 | 27.43288 | 86.60065 | 30927 ft | 452 kts | 282° |
| 2026-05-01 15:04 | 27.44623 | 86.53154 | 30926 ft | 452 kts | 281° |
| 2026-05-01 15:04 | 27.45955 | 86.46231 | 30921 ft | 452 kts | 281° |
| 2026-05-01 15:05 | 27.47279 | 86.39303 | 30923 ft | 453 kts | 281° |
| 2026-05-01 15:05 | 27.48601 | 86.32369 | 30329 ft | 452 kts | 282° |
| 2026-05-01 15:05 | 27.49043 | 86.30070 | 29751 ft | 454 kts | 282° |
| 2026-05-01 15:06 | 27.49909 | 86.25404 | 28517 ft | 457 kts | 280° |
| 2026-05-01 15:06 | 27.50434 | 86.21860 | 27567 ft | 460 kts | 278° |
| 2026-05-01 15:06 | 27.50723 | 86.19501 | 27108 ft | 458 kts | 277° |
| 2026-05-01 15:06 | 27.51221 | 86.14773 | 26199 ft | 452 kts | 276° |
| 2026-05-01 15:07 | 27.51453 | 86.12439 | 25748 ft | 450 kts | 276° |
| 2026-05-01 15:07 | 27.51808 | 86.08959 | 25086 ft | 446 kts | 276° |
| 2026-05-01 15:07 | 27.52312 | 86.04377 | 24202 ft | 442 kts | 277° |
| 2026-05-01 15:07 | 27.52580 | 86.02062 | 23773 ft | 440 kts | 277° |
| 2026-05-01 15:08 | 27.52983 | 85.98677 | 23493 ft | 430 kts | 277° |
| 2026-05-01 15:08 | 27.53501 | 85.94335 | 23321 ft | 413 kts | 277° |
| 2026-05-01 15:08 | 27.53760 | 85.92178 | 23231 ft | 405 kts | 277° |
| 2026-05-01 15:08 | 27.54126 | 85.89124 | 23109 ft | 394 kts | 277° |
| 2026-05-01 15:09 | 27.54483 | 85.86107 | 22981 ft | 383 kts | 277° |
| 2026-05-01 15:09 | 27.55049 | 85.83212 | 22855 ft | 372 kts | 287° |
| 2026-05-01 15:09 | 27.55820 | 85.80480 | 22702 ft | 362 kts | 287° |
| 2026-05-01 15:09 | 27.56571 | 85.77792 | 22412 ft | 357 kts | 287° |
| 2026-05-01 15:10 | 27.57555 | 85.74259 | 21938 ft | 354 kts | 287° |
| 2026-05-01 15:10 | 27.58768 | 85.69875 | 21324 ft | 350 kts | 287° |
| 2026-05-01 15:10 | 27.59500 | 85.67234 | 20921 ft | 347 kts | 287° |
| 2026-05-01 15:11 | 27.60212 | 85.64678 | 20441 ft | 345 kts | 287° |
| 2026-05-01 15:11 | 27.61637 | 85.59557 | 19490 ft | 339 kts | 287° |
| 2026-05-01 15:11 | 27.62340 | 85.57023 | 18969 ft | 338 kts | 287° |
| 2026-05-01 15:12 | 27.63037 | 85.54508 | 18517 ft | 335 kts | 287° |
| 2026-05-01 15:12 | 27.64411 | 85.49528 | 17570 ft | 330 kts | 287° |
| 2026-05-01 15:12 | 27.65125 | 85.47087 | 17192 ft | 326 kts | 293° |
| 2026-05-01 15:13 | 27.69017 | 85.41163 | 16180 ft | 306 kts | 320° |
| 2026-05-01 15:14 | 27.72239 | 85.38073 | 15674 ft | 298 kts | 314° |
| 2026-05-01 15:14 | 27.73429 | 85.36205 | 15427 ft | 294 kts | 294° |
| 2026-05-01 15:14 | 27.73791 | 85.31831 | 15096 ft | 274 kts | 254° |
| 2026-05-01 15:15 | 27.71927 | 85.28418 | 14666 ft | 252 kts | 221° |
| 2026-05-01 15:15 | 27.68845 | 85.26862 | 13861 ft | 241 kts | 185° |
| 2026-05-01 15:16 | 27.65753 | 85.27376 | 13240 ft | 220 kts | 155° |
| 2026-05-01 15:16 | 27.63351 | 85.29488 | 12168 ft | 220 kts | 130° |
| 2026-05-01 15:17 | 27.61912 | 85.32509 | 11123 ft | 222 kts | 106° |
| 2026-05-01 15:18 | 27.61972 | 85.37514 | 9610 ft | 214 kts | 72° |
| 2026-05-01 15:18 | 27.62545 | 85.39019 | 9165 ft | 213 kts | 60° |
| 2026-05-01 15:19 | 27.65356 | 85.42790 | 8053 ft | 198 kts | 47° |
| 2026-05-01 15:19 | 27.67157 | 85.44974 | 7488 ft | 187 kts | 47° |
| 2026-05-01 15:19 | 27.68048 | 85.46028 | 7409 ft | 186 kts | 41° |
| 2026-05-01 15:20 | 27.70340 | 85.47208 | 7214 ft | 182 kts | 6° |
| 2026-05-01 15:20 | 27.71579 | 85.47155 | 6959 ft | 175 kts | 347° |
| 2026-05-01 15:20 | 27.72679 | 85.46731 | 6722 ft | 161 kts | 332° |
| 2026-05-01 15:21 | 27.73583 | 85.46029 | 6510 ft | 157 kts | 317° |
| 2026-05-01 15:21 | 27.74286 | 85.45104 | 6306 ft | 155 kts | 301° |
| 2026-05-01 15:21 | 27.74752 | 85.44013 | 6095 ft | 154 kts | 288° |
| 2026-05-01 15:21 | 27.74951 | 85.42823 | 5898 ft | 154 kts | 272° |
| 2026-05-01 15:22 | 27.74548 | 85.40523 | 5499 ft | 148 kts | 243° |
| 2026-05-01 15:22 | 27.74039 | 85.39513 | 5301 ft | 148 kts | 238° |
| 2026-05-01 15:22 | 27.73530 | 85.38526 | 5109 ft | 147 kts | 238° |
| 2026-05-01 15:23 | 27.72884 | 85.37639 | 4915 ft | 147 kts | 221° |
| 2026-05-01 15:23 | 27.72041 | 85.37000 | 4727 ft | 149 kts | 205° |
| 2026-05-01 15:23 | 27.71073 | 85.36403 | 5159 ft | 162 kts | 209° |
| 2026-05-01 15:23 | 27.70049 | 85.35872 | 6006 ft | 162 kts | 200° |
| 2026-05-01 15:24 | 27.68996 | 85.35433 | 6661 ft | 162 kts | 199° |
| 2026-05-01 15:24 | 27.67933 | 85.34993 | 7190 ft | 163 kts | 200° |
| 2026-05-01 15:24 | 27.66919 | 85.34411 | 7616 ft | 172 kts | 214° |
| 2026-05-01 15:24 | 27.66048 | 85.33487 | 7804 ft | 193 kts | 232° |
| 2026-05-01 15:25 | 27.65374 | 85.32061 | 8006 ft | 217 kts | 254° |
| 2026-05-01 15:25 | 27.65164 | 85.30326 | 8183 ft | 232 kts | 274° |
| 2026-05-01 15:25 | 27.65582 | 85.28538 | 8682 ft | 238 kts | 296° |
| 2026-05-01 15:25 | 27.66556 | 85.27024 | 9300 ft | 245 kts | 317° |
| 2026-05-01 15:26 | 27.68020 | 85.25994 | 9980 ft | 248 kts | 339° |
| 2026-05-01 15:26 | 27.69715 | 85.25681 | 10409 ft | 255 kts | 3° |
| 2026-05-01 15:26 | 27.71428 | 85.26164 | 10485 ft | 254 kts | 28° |
| 2026-05-01 15:26 | 27.72810 | 85.27390 | 10505 ft | 253 kts | 54° |
| 2026-05-01 15:27 | 27.73640 | 85.29113 | 10511 ft | 251 kts | 72° |
| 2026-05-01 15:27 | 27.74223 | 85.30965 | 10503 ft | 251 kts | 71° |
| 2026-05-01 15:27 | 27.74821 | 85.32815 | 10508 ft | 253 kts | 70° |
| 2026-05-01 15:28 | 27.75795 | 85.36556 | 10497 ft | 251 kts | 86° |
| 2026-05-01 15:28 | 27.75684 | 85.38521 | 10504 ft | 252 kts | 103° |
| 2026-05-01 15:28 | 27.75100 | 85.40353 | 10498 ft | 249 kts | 121° |
| 2026-05-01 15:29 | 27.72776 | 85.43197 | 10516 ft | 251 kts | 149° |
| 2026-05-01 15:29 | 27.71172 | 85.43994 | 10494 ft | 248 kts | 165° |
| 2026-05-01 15:29 | 27.67749 | 85.44049 | 10491 ft | 249 kts | 193° |
| 2026-05-01 15:30 | 27.64796 | 85.42122 | 10500 ft | 249 kts | 227° |
| 2026-05-01 15:31 | 27.63180 | 85.34845 | 10486 ft | 247 kts | 285° |
| 2026-05-01 15:31 | 27.64644 | 85.31317 | 10486 ft | 247 kts | 302° |
| 2026-05-01 15:32 | 27.66487 | 85.28009 | 10509 ft | 247 kts | 302° |
| 2026-05-01 15:32 | 27.68335 | 85.24700 | 10565 ft | 249 kts | 301° |
| 2026-05-01 15:33 | 27.70779 | 85.19447 | 10717 ft | 276 kts | 275° |
| 2026-05-01 15:34 | 27.69638 | 85.12959 | 10711 ft | 284 kts | 256° |